sensor_id;sensor_type;location;lat;lon;timestamp;temperature;humidity
66422;DHT22;53228;51.380;0.098;2022-08-02T00:00:42;20.60;99.90
66422;DHT22;53228;51.380;0.098;2022-08-02T00:03:09;20.60;99.90
66422;DHT22;53228;51.380;0.098;2022-08-02T00:05:37;20.50;99.90
66422;DHT22;53228;51.380;0.098;2022-08-02T00:08:06;20.50;99.90
66422;DHT22;53228;51.380;0.098;2022-08-02T00:10:34;20.50;99.90
66422;DHT22;53228;51.380;0.098;2022-08-02T00:13:02;20.50;99.90
66422;DHT22;53228;51.380;0.098;2022-08-02T00:15:30;20.50;99.90
66422;DHT22;53228;51.380;0.098;2022-08-02T00:17:58;20.50;99.90
66422;DHT22;53228;51.380;0.098;2022-08-02T00:20:26;20.50;99.90
66422;DHT22;53228;51.380;0.098;2022-08-02T00:22:54;20.50;99.90
66422;DHT22;53228;51.380;0.098;2022-08-02T00:25:22;20.40;99.90
66422;DHT22;53228;51.380;0.098;2022-08-02T00:27:50;20.40;99.90
66422;DHT22;53228;51.380;0.098;2022-08-02T00:30:17;20.40;99.90
66422;DHT22;53228;51.380;0.098;2022-08-02T00:32:45;20.40;99.90
66422;DHT22;53228;51.380;0.098;2022-08-02T00:35:13;20.30;99.90
66422;DHT22;53228;51.380;0.098;2022-08-02T00:37:41;20.30;99.90
66422;DHT22;53228;51.380;0.098;2022-08-02T00:40:10;20.30;99.90
66422;DHT22;53228;51.380;0.098;2022-08-02T00:42:38;20.30;99.90
66422;DHT22;53228;51.380;0.098;2022-08-02T00:45:07;20.30;99.90
66422;DHT22;53228;51.380;0.098;2022-08-02T00:47:35;20.30;99.90
66422;DHT22;53228;51.380;0.098;2022-08-02T00:50:03;20.20;99.90
66422;DHT22;53228;51.380;0.098;2022-08-02T00:52:31;20.30;99.90
66422;DHT22;53228;51.380;0.098;2022-08-02T00:54:59;20.20;99.90
66422;DHT22;53228;51.380;0.098;2022-08-02T00:57:27;20.30;99.90
66422;DHT22;53228;51.380;0.098;2022-08-02T00:59:55;20.30;99.90
66422;DHT22;53228;51.380;0.098;2022-08-02T01:02:23;19.90;99.90
66422;DHT22;53228;51.380;0.098;2022-08-02T01:04:50;20.20;99.90
66422;DHT22;53228;51.380;0.098;2022-08-02T01:07:18;20.20;99.90
66422;DHT22;53228;51.380;0.098;2022-08-02T01:09:45;20.20;99.90
66422;DHT22;53228;51.380;0.098;2022-08-02T01:12:13;20.20;99.90
66422;DHT22;53228;51.380;0.098;2022-08-02T01:14:45;20.20;99.90
66422;DHT22;53228;51.380;0.098;2022-08-02T01:29:14;20.20;99.90
66422;DHT22;53228;51.380;0.098;2022-08-02T01:31:48;20.20;99.90
66422;DHT22;53228;51.380;0.098;2022-08-02T01:36:57;20.10;99.90
66422;DHT22;53228;51.380;0.098;2022-08-02T01:39:28;20.10;99.90
66422;DHT22;53228;51.380;0.098;2022-08-02T01:42:00;20.10;99.90
66422;DHT22;53228;51.380;0.098;2022-08-02T01:44:32;20.10;99.90
66422;DHT22;53228;51.380;0.098;2022-08-02T01:47:25;20.10;99.90
66422;DHT22;53228;51.380;0.098;2022-08-02T01:49:57;20.10;99.90
66422;DHT22;53228;51.380;0.098;2022-08-02T01:52:29;20.10;99.90
66422;DHT22;53228;51.380;0.098;2022-08-02T01:55:05;20.10;99.90
66422;DHT22;53228;51.380;0.098;2022-08-02T01:57:39;20.00;99.90
66422;DHT22;53228;51.380;0.098;2022-08-02T02:00:09;20.00;99.90
66422;DHT22;53228;51.380;0.098;2022-08-02T02:02:39;20.00;99.90
66422;DHT22;53228;51.380;0.098;2022-08-02T02:05:14;20.00;99.90
66422;DHT22;53228;51.380;0.098;2022-08-02T02:07:43;20.00;99.90
66422;DHT22;53228;51.380;0.098;2022-08-02T02:10:16;20.00;99.90
66422;DHT22;53228;51.380;0.098;2022-08-02T02:12:49;20.00;99.90
66422;DHT22;53228;51.380;0.098;2022-08-02T02:15:18;20.00;99.90
66422;DHT22;53228;51.380;0.098;2022-08-02T02:17:50;20.00;99.90
66422;DHT22;53228;51.380;0.098;2022-08-02T02:20:39;20.00;99.90
66422;DHT22;53228;51.380;0.098;2022-08-02T02:23:07;20.00;99.90
66422;DHT22;53228;51.380;0.098;2022-08-02T02:25:36;19.90;99.90
66422;DHT22;53228;51.380;0.098;2022-08-02T02:28:21;19.90;99.90
66422;DHT22;53228;51.380;0.098;2022-08-02T02:30:57;19.90;99.90
66422;DHT22;53228;51.380;0.098;2022-08-02T02:33:27;19.90;99.90
66422;DHT22;53228;51.380;0.098;2022-08-02T02:35:57;19.80;99.90
66422;DHT22;53228;51.380;0.098;2022-08-02T02:38:30;19.80;99.90
66422;DHT22;53228;51.380;0.098;2022-08-02T02:41:00;19.80;99.90
66422;DHT22;53228;51.380;0.098;2022-08-02T02:43:31;19.80;99.90
66422;DHT22;53228;51.380;0.098;2022-08-02T02:46:01;19.80;99.90
66422;DHT22;53228;51.380;0.098;2022-08-02T02:48:30;19.80;99.90
66422;DHT22;53228;51.380;0.098;2022-08-02T02:50:59;19.80;99.90
66422;DHT22;53228;51.380;0.098;2022-08-02T02:53:29;19.80;99.90
66422;DHT22;53228;51.380;0.098;2022-08-02T02:56:17;19.80;99.90
66422;DHT22;53228;51.380;0.098;2022-08-02T02:58:47;19.80;99.90
66422;DHT22;53228;51.380;0.098;2022-08-02T03:01:15;19.70;99.90
66422;DHT22;53228;51.380;0.098;2022-08-02T03:04:18;19.80;99.90
66422;DHT22;53228;51.380;0.098;2022-08-02T03:06:47;19.80;99.90
66422;DHT22;53228;51.380;0.098;2022-08-02T03:09:14;19.70;99.90
66422;DHT22;53228;51.380;0.098;2022-08-02T03:11:42;19.70;99.90
66422;DHT22;53228;51.380;0.098;2022-08-02T03:14:11;19.70;99.90
66422;DHT22;53228;51.380;0.098;2022-08-02T03:16:44;19.70;99.90
66422;DHT22;53228;51.380;0.098;2022-08-02T03:19:13;19.70;99.90
66422;DHT22;53228;51.380;0.098;2022-08-02T03:21:41;19.70;99.90
66422;DHT22;53228;51.380;0.098;2022-08-02T03:24:11;19.70;99.90
66422;DHT22;53228;51.380;0.098;2022-08-02T03:26:40;19.70;99.90
66422;DHT22;53228;51.380;0.098;2022-08-02T03:29:08;19.70;99.90
66422;DHT22;53228;51.380;0.098;2022-08-02T03:31:40;19.70;99.90
66422;DHT22;53228;51.380;0.098;2022-08-02T03:34:10;19.60;99.90
66422;DHT22;53228;51.380;0.098;2022-08-02T03:36:38;19.60;99.90
66422;DHT22;53228;51.380;0.098;2022-08-02T03:39:07;19.60;99.90
66422;DHT22;53228;51.380;0.098;2022-08-02T03:41:36;19.60;99.90
66422;DHT22;53228;51.380;0.098;2022-08-02T03:44:06;19.60;99.90
66422;DHT22;53228;51.380;0.098;2022-08-02T03:46:34;19.60;99.90
66422;DHT22;53228;51.380;0.098;2022-08-02T03:49:10;19.60;99.90
66422;DHT22;53228;51.380;0.098;2022-08-02T03:51:39;19.60;99.90
66422;DHT22;53228;51.380;0.098;2022-08-02T03:54:07;19.60;99.90
66422;DHT22;53228;51.380;0.098;2022-08-02T03:56:35;19.60;99.90
66422;DHT22;53228;51.380;0.098;2022-08-02T03:59:11;19.60;99.90
66422;DHT22;53228;51.380;0.098;2022-08-02T04:01:39;19.50;99.90
66422;DHT22;53228;51.380;0.098;2022-08-02T04:04:07;19.50;99.90
66422;DHT22;53228;51.380;0.098;2022-08-02T04:06:35;19.50;99.90
66422;DHT22;53228;51.380;0.098;2022-08-02T04:09:08;19.40;99.90
66422;DHT22;53228;51.380;0.098;2022-08-02T04:11:36;20.00;99.90
66422;DHT22;53228;51.380;0.098;2022-08-02T04:14:08;19.40;99.90
66422;DHT22;53228;51.380;0.098;2022-08-02T04:16:44;19.40;99.90
66422;DHT22;53228;51.380;0.098;2022-08-02T04:21:52;19.30;99.90
66422;DHT22;53228;51.380;0.098;2022-08-02T04:24:24;19.30;99.90
66422;DHT22;53228;51.380;0.098;2022-08-02T04:26:57;19.20;99.90
66422;DHT22;53228;51.380;0.098;2022-08-02T04:29:46;19.20;99.90
66422;DHT22;53228;51.380;0.098;2022-08-02T04:32:15;19.20;99.90
66422;DHT22;53228;51.380;0.098;2022-08-02T04:34:44;19.20;99.90
66422;DHT22;53228;51.380;0.098;2022-08-02T04:37:33;19.20;99.90
66422;DHT22;53228;51.380;0.098;2022-08-02T04:40:02;19.20;99.90
66422;DHT22;53228;51.380;0.098;2022-08-02T04:42:30;19.20;99.90
66422;DHT22;53228;51.380;0.098;2022-08-02T04:44:58;19.20;99.90
66422;DHT22;53228;51.380;0.098;2022-08-02T04:47:25;19.20;99.90
66422;DHT22;53228;51.380;0.098;2022-08-02T04:50:13;19.20;99.90
66422;DHT22;53228;51.380;0.098;2022-08-02T04:52:42;19.20;99.90
66422;DHT22;53228;51.380;0.098;2022-08-02T04:55:12;19.30;99.90
66422;DHT22;53228;51.380;0.098;2022-08-02T05:00:25;19.30;99.90
66422;DHT22;53228;51.380;0.098;2022-08-02T05:02:58;19.30;99.90
66422;DHT22;53228;51.380;0.098;2022-08-02T05:05:26;19.30;99.90
66422;DHT22;53228;51.380;0.098;2022-08-02T05:07:54;19.30;99.90
66422;DHT22;53228;51.380;0.098;2022-08-02T05:10:22;19.30;99.90
66422;DHT22;53228;51.380;0.098;2022-08-02T05:12:50;19.40;99.90
66422;DHT22;53228;51.380;0.098;2022-08-02T05:15:18;19.40;99.90
66422;DHT22;53228;51.380;0.098;2022-08-02T05:17:46;19.40;99.90
66422;DHT22;53228;51.380;0.098;2022-08-02T05:20:16;19.40;99.90
66422;DHT22;53228;51.380;0.098;2022-08-02T05:22:45;19.50;99.90
66422;DHT22;53228;51.380;0.098;2022-08-02T05:25:13;19.50;99.90
66422;DHT22;53228;51.380;0.098;2022-08-02T05:27:41;18.70;99.90
66422;DHT22;53228;51.380;0.098;2022-08-02T05:30:09;19.50;99.90
66422;DHT22;53228;51.380;0.098;2022-08-02T05:32:48;19.60;99.90
66422;DHT22;53228;51.380;0.098;2022-08-02T05:35:17;19.60;99.90
66422;DHT22;53228;51.380;0.098;2022-08-02T05:37:47;19.70;99.90
66422;DHT22;53228;51.380;0.098;2022-08-02T05:40:15;19.70;99.90
66422;DHT22;53228;51.380;0.098;2022-08-02T05:42:43;19.70;99.90
66422;DHT22;53228;51.380;0.098;2022-08-02T05:45:11;19.80;99.90
66422;DHT22;53228;51.380;0.098;2022-08-02T05:47:39;19.80;99.90
66422;DHT22;53228;51.380;0.098;2022-08-02T05:50:08;19.90;99.90
66422;DHT22;53228;51.380;0.098;2022-08-02T05:55:21;20.00;99.90
66422;DHT22;53228;51.380;0.098;2022-08-02T05:58:05;20.00;99.90
66422;DHT22;53228;51.380;0.098;2022-08-02T06:00:40;20.10;99.90
66422;DHT22;53228;51.380;0.098;2022-08-02T06:03:25;20.20;99.90
66422;DHT22;53228;51.380;0.098;2022-08-02T06:05:59;20.20;99.90
66422;DHT22;53228;51.380;0.098;2022-08-02T06:08:46;20.20;99.90
66422;DHT22;53228;51.380;0.098;2022-08-02T06:11:20;20.40;99.90
66422;DHT22;53228;51.380;0.098;2022-08-02T06:13:47;20.60;99.90
66422;DHT22;53228;51.380;0.098;2022-08-02T06:16:15;20.80;99.90
66422;DHT22;53228;51.380;0.098;2022-08-02T06:18:58;20.90;99.90
66422;DHT22;53228;51.380;0.098;2022-08-02T06:21:27;21.20;99.90
66422;DHT22;53228;51.380;0.098;2022-08-02T06:24:17;21.20;99.90
66422;DHT22;53228;51.380;0.098;2022-08-02T06:26:47;21.30;99.90
66422;DHT22;53228;51.380;0.098;2022-08-02T06:29:19;21.40;99.90
66422;DHT22;53228;51.380;0.098;2022-08-02T06:31:51;21.50;99.90
66422;DHT22;53228;51.380;0.098;2022-08-02T06:34:19;21.60;99.90
66422;DHT22;53228;51.380;0.098;2022-08-02T06:39:46;21.50;99.90
66422;DHT22;53228;51.380;0.098;2022-08-02T06:42:28;21.50;99.90
66422;DHT22;53228;51.380;0.098;2022-08-02T06:45:01;21.50;99.90
66422;DHT22;53228;51.380;0.098;2022-08-02T06:47:29;21.50;99.90
66422;DHT22;53228;51.380;0.098;2022-08-02T06:49:57;21.50;99.90
66422;DHT22;53228;51.380;0.098;2022-08-02T06:52:26;21.50;99.90
66422;DHT22;53228;51.380;0.098;2022-08-02T06:55:01;21.60;99.90
66422;DHT22;53228;51.380;0.098;2022-08-02T06:57:31;21.60;99.90
66422;DHT22;53228;51.380;0.098;2022-08-02T06:59:59;21.60;99.90
66422;DHT22;53228;51.380;0.098;2022-08-02T07:02:31;21.60;99.90
66422;DHT22;53228;51.380;0.098;2022-08-02T07:04:59;21.60;99.90
66422;DHT22;53228;51.380;0.098;2022-08-02T07:07:27;21.60;99.90
66422;DHT22;53228;51.380;0.098;2022-08-02T07:09:54;21.60;99.90
66422;DHT22;53228;51.380;0.098;2022-08-02T07:12:30;21.70;99.90
66422;DHT22;53228;51.380;0.098;2022-08-02T07:15:00;21.80;99.90
66422;DHT22;53228;51.380;0.098;2022-08-02T07:17:28;21.90;99.90
66422;DHT22;53228;51.380;0.098;2022-08-02T07:19:57;22.00;99.90
66422;DHT22;53228;51.380;0.098;2022-08-02T07:22:25;22.10;99.90
66422;DHT22;53228;51.380;0.098;2022-08-02T07:24:55;22.20;99.90
66422;DHT22;53228;51.380;0.098;2022-08-02T07:27:23;22.20;99.90
66422;DHT22;53228;51.380;0.098;2022-08-02T07:29:51;22.30;99.90
66422;DHT22;53228;51.380;0.098;2022-08-02T07:32:22;22.30;99.90
66422;DHT22;53228;51.380;0.098;2022-08-02T07:34:50;22.30;99.90
66422;DHT22;53228;51.380;0.098;2022-08-02T07:37:24;22.30;99.90
66422;DHT22;53228;51.380;0.098;2022-08-02T07:40:13;22.40;99.90
66422;DHT22;53228;51.380;0.098;2022-08-02T07:42:48;22.40;99.90
66422;DHT22;53228;51.380;0.098;2022-08-02T07:45:19;22.40;99.90
66422;DHT22;53228;51.380;0.098;2022-08-02T07:47:48;22.40;99.90
66422;DHT22;53228;51.380;0.098;2022-08-02T07:50:18;22.50;99.90
66422;DHT22;53228;51.380;0.098;2022-08-02T07:52:47;22.60;99.90
66422;DHT22;53228;51.380;0.098;2022-08-02T07:55:15;22.80;99.90
66422;DHT22;53228;51.380;0.098;2022-08-02T07:57:45;22.90;99.90
66422;DHT22;53228;51.380;0.098;2022-08-02T08:00:14;22.90;99.90
66422;DHT22;53228;51.380;0.098;2022-08-02T08:02:45;23.10;99.90
66422;DHT22;53228;51.380;0.098;2022-08-02T08:05:13;23.30;99.90
66422;DHT22;53228;51.380;0.098;2022-08-02T08:07:41;23.30;99.90
66422;DHT22;53228;51.380;0.098;2022-08-02T08:10:09;23.30;99.90
66422;DHT22;53228;51.380;0.098;2022-08-02T08:12:37;23.30;99.90
66422;DHT22;53228;51.380;0.098;2022-08-02T08:15:05;23.30;99.90
66422;DHT22;53228;51.380;0.098;2022-08-02T08:17:33;23.30;99.90
66422;DHT22;53228;51.380;0.098;2022-08-02T08:20:03;23.20;99.90
66422;DHT22;53228;51.380;0.098;2022-08-02T08:22:31;23.20;99.90
66422;DHT22;53228;51.380;0.098;2022-08-02T08:24:59;23.20;99.90
66422;DHT22;53228;51.380;0.098;2022-08-02T08:27:27;23.30;99.90
66422;DHT22;53228;51.380;0.098;2022-08-02T08:29:55;23.40;99.90
66422;DHT22;53228;51.380;0.098;2022-08-02T08:32:23;23.40;99.90
66422;DHT22;53228;51.380;0.098;2022-08-02T08:34:52;23.50;99.90
66422;DHT22;53228;51.380;0.098;2022-08-02T08:37:19;23.50;99.90
66422;DHT22;53228;51.380;0.098;2022-08-02T08:39:48;23.60;99.90
66422;DHT22;53228;51.380;0.098;2022-08-02T08:42:26;23.80;99.90
66422;DHT22;53228;51.380;0.098;2022-08-02T08:44:55;24.00;99.90
66422;DHT22;53228;51.380;0.098;2022-08-02T08:47:33;24.00;99.90
66422;DHT22;53228;51.380;0.098;2022-08-02T08:50:04;24.00;99.90
66422;DHT22;53228;51.380;0.098;2022-08-02T08:52:46;24.10;99.90
66422;DHT22;53228;51.380;0.098;2022-08-02T08:55:14;24.10;99.90
66422;DHT22;53228;51.380;0.098;2022-08-02T08:57:43;24.10;99.90
66422;DHT22;53228;51.380;0.098;2022-08-02T09:00:11;24.00;99.90
66422;DHT22;53228;51.380;0.098;2022-08-02T09:02:40;24.00;99.90
66422;DHT22;53228;51.380;0.098;2022-08-02T09:05:14;24.00;99.90
66422;DHT22;53228;51.380;0.098;2022-08-02T09:07:46;24.10;99.90
66422;DHT22;53228;51.380;0.098;2022-08-02T09:10:37;24.20;99.90
66422;DHT22;53228;51.380;0.098;2022-08-02T09:13:17;24.30;99.90
66422;DHT22;53228;51.380;0.098;2022-08-02T09:16:05;24.40;99.90
66422;DHT22;53228;51.380;0.098;2022-08-02T09:18:43;24.40;99.90
66422;DHT22;53228;51.380;0.098;2022-08-02T09:21:12;24.30;99.90
66422;DHT22;53228;51.380;0.098;2022-08-02T09:23:42;24.20;99.90
66422;DHT22;53228;51.380;0.098;2022-08-02T09:26:12;24.10;99.90
66422;DHT22;53228;51.380;0.098;2022-08-02T09:28:42;24.00;99.90
66422;DHT22;53228;51.380;0.098;2022-08-02T09:31:12;24.00;99.90
66422;DHT22;53228;51.380;0.098;2022-08-02T09:33:43;23.90;99.90
66422;DHT22;53228;51.380;0.098;2022-08-02T09:36:15;24.00;99.90
66422;DHT22;53228;51.380;0.098;2022-08-02T09:38:58;24.00;99.90
66422;DHT22;53228;51.380;0.098;2022-08-02T09:41:28;24.00;99.90
66422;DHT22;53228;51.380;0.098;2022-08-02T09:43:57;24.00;99.90
66422;DHT22;53228;51.380;0.098;2022-08-02T09:46:38;24.00;99.90
66422;DHT22;53228;51.380;0.098;2022-08-02T09:49:14;24.00;99.90
66422;DHT22;53228;51.380;0.098;2022-08-02T09:51:50;24.00;99.90
66422;DHT22;53228;51.380;0.098;2022-08-02T09:54:28;24.00;99.90
66422;DHT22;53228;51.380;0.098;2022-08-02T09:56:58;23.90;99.90
66422;DHT22;53228;51.380;0.098;2022-08-02T09:59:27;23.90;99.90
66422;DHT22;53228;51.380;0.098;2022-08-02T10:01:57;23.80;99.90
66422;DHT22;53228;51.380;0.098;2022-08-02T10:04:44;23.80;99.90
66422;DHT22;53228;51.380;0.098;2022-08-02T10:07:21;23.90;99.90
66422;DHT22;53228;51.380;0.098;2022-08-02T10:09:51;23.90;99.90
66422;DHT22;53228;51.380;0.098;2022-08-02T10:12:20;24.00;99.90
66422;DHT22;53228;51.380;0.098;2022-08-02T10:14:50;24.10;99.90
66422;DHT22;53228;51.380;0.098;2022-08-02T10:17:19;24.10;99.90
66422;DHT22;53228;51.380;0.098;2022-08-02T10:19:47;24.20;99.90
66422;DHT22;53228;51.380;0.098;2022-08-02T10:22:32;24.40;99.90
66422;DHT22;53228;51.380;0.098;2022-08-02T10:25:03;24.50;99.90
66422;DHT22;53228;51.380;0.098;2022-08-02T10:27:31;24.70;99.90
66422;DHT22;53228;51.380;0.098;2022-08-02T10:30:21;24.70;99.90
66422;DHT22;53228;51.380;0.098;2022-08-02T10:32:50;24.70;99.90
66422;DHT22;53228;51.380;0.098;2022-08-02T10:35:21;24.80;99.90
66422;DHT22;53228;51.380;0.098;2022-08-02T10:37:59;24.90;99.90
66422;DHT22;53228;51.380;0.098;2022-08-02T10:40:49;24.90;99.90
66422;DHT22;53228;51.380;0.098;2022-08-02T10:46:42;25.00;99.90
66422;DHT22;53228;51.380;0.098;2022-08-02T10:49:13;24.90;99.90
66422;DHT22;53228;51.380;0.098;2022-08-02T10:54:36;24.80;99.90
66422;DHT22;53228;51.380;0.098;2022-08-02T10:57:14;24.80;99.90
66422;DHT22;53228;51.380;0.098;2022-08-02T10:59:43;24.80;99.90
66422;DHT22;53228;51.380;0.098;2022-08-02T11:02:11;24.80;99.90
66422;DHT22;53228;51.380;0.098;2022-08-02T11:07:15;25.00;99.90
66422;DHT22;53228;51.380;0.098;2022-08-02T11:09:48;25.10;99.90
66422;DHT22;53228;51.380;0.098;2022-08-02T11:12:18;25.20;99.90
66422;DHT22;53228;51.380;0.098;2022-08-02T11:14:59;25.30;99.90
66422;DHT22;53228;51.380;0.098;2022-08-02T11:17:27;25.40;99.90
66422;DHT22;53228;51.380;0.098;2022-08-02T11:22:39;25.40;99.90
66422;DHT22;53228;51.380;0.098;2022-08-02T11:27:56;25.20;99.90
66422;DHT22;53228;51.380;0.098;2022-08-02T11:30:25;25.10;99.90
66422;DHT22;53228;51.380;0.098;2022-08-02T11:32:54;25.10;99.90
66422;DHT22;53228;51.380;0.098;2022-08-02T11:35:22;25.10;99.90
66422;DHT22;53228;51.380;0.098;2022-08-02T11:37:57;25.20;99.90
66422;DHT22;53228;51.380;0.098;2022-08-02T11:40:38;25.30;99.90
66422;DHT22;53228;51.380;0.098;2022-08-02T11:43:18;25.40;99.90
66422;DHT22;53228;51.380;0.098;2022-08-02T11:45:47;25.30;99.90
66422;DHT22;53228;51.380;0.098;2022-08-02T11:48:29;25.20;99.90
66422;DHT22;53228;51.380;0.098;2022-08-02T11:51:09;25.10;99.90
66422;DHT22;53228;51.380;0.098;2022-08-02T11:56:16;24.90;99.90
66422;DHT22;53228;51.380;0.098;2022-08-02T11:59:05;24.90;99.90
66422;DHT22;53228;51.380;0.098;2022-08-02T12:01:37;24.90;99.90
66422;DHT22;53228;51.380;0.098;2022-08-02T12:04:18;24.90;99.90
66422;DHT22;53228;51.380;0.098;2022-08-02T12:06:54;25.00;99.90
66422;DHT22;53228;51.380;0.098;2022-08-02T12:09:25;25.10;99.90
66422;DHT22;53228;51.380;0.098;2022-08-02T12:11:54;25.10;99.90
66422;DHT22;53228;51.380;0.098;2022-08-02T12:14:23;25.20;99.90
66422;DHT22;53228;51.380;0.098;2022-08-02T12:16:51;25.30;99.90
66422;DHT22;53228;51.380;0.098;2022-08-02T12:19:39;25.40;99.90
66422;DHT22;53228;51.380;0.098;2022-08-02T12:22:24;25.40;99.90
66422;DHT22;53228;51.380;0.098;2022-08-02T12:24:56;25.50;99.90
66422;DHT22;53228;51.380;0.098;2022-08-02T12:27:36;25.50;99.90
66422;DHT22;53228;51.380;0.098;2022-08-02T12:30:11;25.50;99.90
66422;DHT22;53228;51.380;0.098;2022-08-02T12:32:40;25.50;99.90
66422;DHT22;53228;51.380;0.098;2022-08-02T12:35:16;25.60;99.90
66422;DHT22;53228;51.380;0.098;2022-08-02T12:37:53;25.70;99.90
66422;DHT22;53228;51.380;0.098;2022-08-02T12:40:30;25.70;99.90
66422;DHT22;53228;51.380;0.098;2022-08-02T12:43:01;25.60;99.90
66422;DHT22;53228;51.380;0.098;2022-08-02T12:45:54;25.70;99.90
66422;DHT22;53228;51.380;0.098;2022-08-02T12:48:37;25.60;99.90
66422;DHT22;53228;51.380;0.098;2022-08-02T12:54:21;25.60;99.90
66422;DHT22;53228;51.380;0.098;2022-08-02T12:57:13;25.60;99.90
66422;DHT22;53228;51.380;0.098;2022-08-02T12:59:47;25.60;99.90
66422;DHT22;53228;51.380;0.098;2022-08-02T13:02:15;25.60;99.90
66422;DHT22;53228;51.380;0.098;2022-08-02T13:04:45;25.70;99.90
66422;DHT22;53228;51.380;0.098;2022-08-02T13:07:17;25.60;99.90
66422;DHT22;53228;51.380;0.098;2022-08-02T13:09:45;25.60;99.90
66422;DHT22;53228;51.380;0.098;2022-08-02T13:12:14;25.60;99.90
66422;DHT22;53228;51.380;0.098;2022-08-02T13:14:43;25.60;99.90
66422;DHT22;53228;51.380;0.098;2022-08-02T13:17:11;25.60;99.90
66422;DHT22;53228;51.380;0.098;2022-08-02T13:19:39;25.50;99.90
66422;DHT22;53228;51.380;0.098;2022-08-02T13:22:08;26.00;99.90
66422;DHT22;53228;51.380;0.098;2022-08-02T13:24:37;25.40;99.90
66422;DHT22;53228;51.380;0.098;2022-08-02T13:27:23;25.30;99.90
66422;DHT22;53228;51.380;0.098;2022-08-02T13:29:52;25.20;99.90
66422;DHT22;53228;51.380;0.098;2022-08-02T13:32:21;25.20;99.90
66422;DHT22;53228;51.380;0.098;2022-08-02T13:34:48;25.40;99.90
66422;DHT22;53228;51.380;0.098;2022-08-02T13:37:16;25.40;99.90
66422;DHT22;53228;51.380;0.098;2022-08-02T13:39:44;25.60;99.90
66422;DHT22;53228;51.380;0.098;2022-08-02T13:42:32;25.80;99.90
66422;DHT22;53228;51.380;0.098;2022-08-02T13:45:00;26.10;99.90
66422;DHT22;53228;51.380;0.098;2022-08-02T13:47:40;26.60;99.90
66422;DHT22;53228;51.380;0.098;2022-08-02T13:50:28;27.10;99.90
66422;DHT22;53228;51.380;0.098;2022-08-02T13:52:56;27.60;99.90
66422;DHT22;53228;51.380;0.098;2022-08-02T13:55:24;28.10;99.90
66422;DHT22;53228;51.380;0.098;2022-08-02T13:57:51;28.30;99.90
66422;DHT22;53228;51.380;0.098;2022-08-02T14:00:21;28.50;99.80
66422;DHT22;53228;51.380;0.098;2022-08-02T14:03:06;28.90;99.00
66422;DHT22;53228;51.380;0.098;2022-08-02T14:05:41;29.30;97.50
66422;DHT22;53228;51.380;0.098;2022-08-02T14:08:19;29.50;96.60
66422;DHT22;53228;51.380;0.098;2022-08-02T14:10:49;29.90;96.80
66422;DHT22;53228;51.380;0.098;2022-08-02T14:13:18;30.20;94.90
66422;DHT22;53228;51.380;0.098;2022-08-02T14:15:46;30.20;94.70
66422;DHT22;53228;51.380;0.098;2022-08-02T14:18:14;30.10;94.10
66422;DHT22;53228;51.380;0.098;2022-08-02T14:20:45;30.20;94.00
66422;DHT22;53228;51.380;0.098;2022-08-02T14:23:13;30.30;93.60
66422;DHT22;53228;51.380;0.098;2022-08-02T14:25:41;30.00;92.60
66422;DHT22;53228;51.380;0.098;2022-08-02T14:28:10;29.90;92.90
66422;DHT22;53228;51.380;0.098;2022-08-02T14:30:38;29.50;93.50
66422;DHT22;53228;51.380;0.098;2022-08-02T14:33:06;29.20;93.90
66422;DHT22;53228;51.380;0.098;2022-08-02T14:35:34;29.00;94.40
66422;DHT22;53228;51.380;0.098;2022-08-02T14:38:01;28.80;94.50
66422;DHT22;53228;51.380;0.098;2022-08-02T14:40:30;28.00;95.30
66422;DHT22;53228;51.380;0.098;2022-08-02T14:42:59;28.00;95.60
66422;DHT22;53228;51.380;0.098;2022-08-02T14:45:27;27.80;96.30
66422;DHT22;53228;51.380;0.098;2022-08-02T14:48:09;27.70;96.80
66422;DHT22;53228;51.380;0.098;2022-08-02T14:50:38;27.50;97.10
66422;DHT22;53228;51.380;0.098;2022-08-02T14:53:06;27.30;97.40
66422;DHT22;53228;51.380;0.098;2022-08-02T14:55:40;26.70;98.20
66422;DHT22;53228;51.380;0.098;2022-08-02T14:58:09;26.70;98.50
66422;DHT22;53228;51.380;0.098;2022-08-02T15:00:38;26.70;99.10
66422;DHT22;53228;51.380;0.098;2022-08-02T15:03:09;26.80;99.30
66422;DHT22;53228;51.380;0.098;2022-08-02T15:05:37;27.10;99.50
66422;DHT22;53228;51.380;0.098;2022-08-02T15:08:05;27.30;98.70
66422;DHT22;53228;51.380;0.098;2022-08-02T15:10:33;27.50;98.70
66422;DHT22;53228;51.380;0.098;2022-08-02T15:13:01;27.40;98.40
66422;DHT22;53228;51.380;0.098;2022-08-02T15:15:28;26.60;98.20
66422;DHT22;53228;51.380;0.098;2022-08-02T15:17:56;27.00;98.80
66422;DHT22;53228;51.380;0.098;2022-08-02T15:20:27;27.10;98.90
66422;DHT22;53228;51.380;0.098;2022-08-02T15:22:55;27.10;99.00
66422;DHT22;53228;51.380;0.098;2022-08-02T15:25:24;26.90;98.80
66422;DHT22;53228;51.380;0.098;2022-08-02T15:27:51;26.90;99.10
66422;DHT22;53228;51.380;0.098;2022-08-02T15:30:19;26.70;99.10
66422;DHT22;53228;51.380;0.098;2022-08-02T15:32:47;26.70;99.70
66422;DHT22;53228;51.380;0.098;2022-08-02T15:35:20;26.60;99.70
66422;DHT22;53228;51.380;0.098;2022-08-02T15:37:48;26.50;99.80
66422;DHT22;53228;51.380;0.098;2022-08-02T15:40:16;26.50;99.90
66422;DHT22;53228;51.380;0.098;2022-08-02T15:42:43;26.50;99.90
66422;DHT22;53228;51.380;0.098;2022-08-02T15:45:12;26.40;99.90
66422;DHT22;53228;51.380;0.098;2022-08-02T15:47:43;26.40;99.90
66422;DHT22;53228;51.380;0.098;2022-08-02T15:50:17;26.40;99.90
66422;DHT22;53228;51.380;0.098;2022-08-02T15:52:45;26.30;99.90
66422;DHT22;53228;51.380;0.098;2022-08-02T15:55:13;26.20;99.90
66422;DHT22;53228;51.380;0.098;2022-08-02T15:57:41;25.70;99.90
66422;DHT22;53228;51.380;0.098;2022-08-02T16:00:09;26.00;99.90
66422;DHT22;53228;51.380;0.098;2022-08-02T16:02:45;26.00;99.90
66422;DHT22;53228;51.380;0.098;2022-08-02T16:05:15;25.90;99.90
66422;DHT22;53228;51.380;0.098;2022-08-02T16:07:44;25.90;99.90
66422;DHT22;53228;51.380;0.098;2022-08-02T16:10:14;25.90;99.90
66422;DHT22;53228;51.380;0.098;2022-08-02T16:12:42;25.90;99.90
66422;DHT22;53228;51.380;0.098;2022-08-02T16:15:10;25.80;99.90
66422;DHT22;53228;51.380;0.098;2022-08-02T16:17:39;25.70;99.90
66422;DHT22;53228;51.380;0.098;2022-08-02T16:20:21;25.70;99.90
66422;DHT22;53228;51.380;0.098;2022-08-02T16:22:49;25.70;99.90
66422;DHT22;53228;51.380;0.098;2022-08-02T16:25:17;25.80;99.90
66422;DHT22;53228;51.380;0.098;2022-08-02T16:27:44;25.90;99.90
66422;DHT22;53228;51.380;0.098;2022-08-02T16:30:32;25.80;99.90
66422;DHT22;53228;51.380;0.098;2022-08-02T16:33:00;25.80;99.90
66422;DHT22;53228;51.380;0.098;2022-08-02T16:35:28;25.80;99.90
66422;DHT22;53228;51.380;0.098;2022-08-02T16:37:56;25.80;99.90
66422;DHT22;53228;51.380;0.098;2022-08-02T16:40:24;25.70;99.90
66422;DHT22;53228;51.380;0.098;2022-08-02T16:42:51;25.70;99.90